createdAt,value
2022-10-26T00:02:05.412Z,10.72
2022-10-26T00:04:36.308Z,10.78
2022-10-26T00:07:04.876Z,10.82
2022-10-26T00:09:36.438Z,10.87
2022-10-26T00:12:05.744Z,10.89
2022-10-26T00:14:37.837Z,10.92
2022-10-26T00:17:07.133Z,10.95
2022-10-26T00:19:38.560Z,10.98
2022-10-26T00:22:07.568Z,10.99
2022-10-26T00:24:38.657Z,11.04
2022-10-26T00:27:07.436Z,11.08
2022-10-26T00:29:37.977Z,11.10
2022-10-26T00:32:07.143Z,11.10
2022-10-26T00:34:35.966Z,11.12
2022-10-26T00:37:08.119Z,11.15
2022-10-26T00:39:37.085Z,11.16
2022-10-26T00:42:07.777Z,11.16
2022-10-26T00:44:49.928Z,11.16
2022-10-26T00:47:45.519Z,11.19
2022-10-26T00:50:20.604Z,11.19
2022-10-26T00:52:52.312Z,11.21
2022-10-26T00:55:29.236Z,11.19
2022-10-26T00:58:02.727Z,11.21
2022-10-26T01:00:34.164Z,11.21
2022-10-26T01:03:11.149Z,11.20
2022-10-26T01:05:43.022Z,11.18
2022-10-26T01:08:13.617Z,11.16
2022-10-26T01:10:44.358Z,11.15
2022-10-26T01:13:15.773Z,11.14
2022-10-26T01:15:47.380Z,11.14
2022-10-26T01:18:53.571Z,11.11
2022-10-26T01:22:05.122Z,11.05
2022-10-26T01:25:11.266Z,11.05
2022-10-26T01:27:43.778Z,11.01
2022-10-26T01:30:19.776Z,10.99
2022-10-26T01:33:15.350Z,10.96
2022-10-26T01:36:06.076Z,10.96
2022-10-26T01:39:09.266Z,10.95
2022-10-26T01:42:02.357Z,10.95
2022-10-26T01:44:40.089Z,10.93
2022-10-26T01:47:15.243Z,10.93
2022-10-26T01:49:50.158Z,10.91
2022-10-26T01:52:20.454Z,10.88
2022-10-26T01:54:49.734Z,10.87
2022-10-26T01:57:21.900Z,10.84
2022-10-26T02:00:11.840Z,10.84
2022-10-26T02:03:04.913Z,10.85
2022-10-26T02:05:53.935Z,10.84
2022-10-26T02:08:54.851Z,10.81
2022-10-26T02:11:39.645Z,10.78
2022-10-26T02:17:06.661Z,10.80
2022-10-26T02:19:46.480Z,10.81
2022-10-26T02:22:29.413Z,10.79
2022-10-26T02:25:02.329Z,10.79
2022-10-26T02:27:37.334Z,10.76
2022-10-26T02:30:06.766Z,10.76
2022-10-26T02:32:38.256Z,10.84
2022-10-26T02:35:09.582Z,10.91
2022-10-26T02:37:41.533Z,10.93
2022-10-26T02:40:14.625Z,10.96
2022-10-26T02:42:47.878Z,10.96
2022-10-26T02:45:39.865Z,10.94
2022-10-26T02:48:09.573Z,10.91
2022-10-26T02:51:13.483Z,10.86
2022-10-26T02:53:46.260Z,10.80
2022-10-26T02:56:29.539Z,10.78
2022-10-26T02:59:04.205Z,10.74
2022-10-26T03:01:36.906Z,10.69
2022-10-26T03:04:06.998Z,10.68
2022-10-26T03:06:35.891Z,10.66
2022-10-26T03:09:06.357Z,10.60
2022-10-26T03:11:41.534Z,10.55
2022-10-26T03:14:10.756Z,10.49
2022-10-26T03:16:39.554Z,10.48
2022-10-26T03:19:09.941Z,10.44
2022-10-26T03:21:40.100Z,10.36
2022-10-26T03:24:10.588Z,10.34
2022-10-26T03:26:40.948Z,10.37
2022-10-26T03:29:12.190Z,10.36
2022-10-26T03:31:42.722Z,10.35
2022-10-26T03:34:11.342Z,10.33
2022-10-26T03:36:39.975Z,10.32
2022-10-26T03:39:09.690Z,10.30
2022-10-26T03:41:38.292Z,10.27
2022-10-26T03:44:07.591Z,10.24
2022-10-26T03:46:37.287Z,10.21
2022-10-26T03:49:07.686Z,10.22
2022-10-26T03:51:36.324Z,10.24
2022-10-26T03:54:06.310Z,10.21
2022-10-26T03:56:37.474Z,10.19
2022-10-26T03:59:08.501Z,10.16
2022-10-26T04:01:39.357Z,10.10
2022-10-26T04:05:00.008Z,10.08
2022-10-26T04:07:30.471Z,10.02
2022-10-26T04:10:03.108Z,9.98
2022-10-26T04:12:38.822Z,9.94
2022-10-26T04:15:08.792Z,9.93
2022-10-26T04:17:39.676Z,9.94
2022-10-26T04:20:09.395Z,9.90
2022-10-26T04:22:44.714Z,9.91
2022-10-26T04:25:14.884Z,9.92
2022-10-26T04:27:43.468Z,9.93
2022-10-26T04:30:14.284Z,9.94
2022-10-26T04:32:43.154Z,9.95
2022-10-26T04:35:15.325Z,9.95
2022-10-26T04:37:44.604Z,9.97
2022-10-26T04:40:13.838Z,9.97
2022-10-26T04:42:47.464Z,9.97
2022-10-26T04:45:17.366Z,9.97
2022-10-26T04:47:46.036Z,9.94
2022-10-26T04:50:18.285Z,9.93
2022-10-26T04:52:51.441Z,9.94
2022-10-26T04:55:22.039Z,9.95
2022-10-26T04:57:55.856Z,9.95
2022-10-26T05:00:28.162Z,9.93
2022-10-26T05:03:48.896Z,9.89
2022-10-26T05:06:18.977Z,9.85
2022-10-26T05:08:51.113Z,9.84
2022-10-26T05:11:20.287Z,9.84
2022-10-26T05:13:49.749Z,9.87
2022-10-26T05:16:19.040Z,9.91
2022-10-26T05:18:52.264Z,9.94
2022-10-26T05:21:24.614Z,9.98
2022-10-26T05:23:55.762Z,10.00
2022-10-26T05:26:26.493Z,10.01
2022-10-26T05:28:58.323Z,10.02
2022-10-26T05:31:30.238Z,10.03
2022-10-26T05:34:00.551Z,10.07
2022-10-26T05:36:30.262Z,10.10
2022-10-26T05:39:01.930Z,10.10
2022-10-26T05:41:30.888Z,10.12
2022-10-26T05:44:00.668Z,10.14
2022-10-26T05:46:29.524Z,10.14
2022-10-26T05:49:01.762Z,10.13
2022-10-26T05:51:34.606Z,10.12
2022-10-26T05:54:04.843Z,10.13
2022-10-26T05:56:44.912Z,10.12
2022-10-26T05:59:17.730Z,10.05
2022-10-26T06:02:25.761Z,9.96
2022-10-26T06:05:02.882Z,9.94
2022-10-26T06:07:33.601Z,9.92
2022-10-26T06:10:04.011Z,9.92
2022-10-26T06:12:32.925Z,9.95
2022-10-26T06:15:03.097Z,9.96
2022-10-26T06:18:21.874Z,9.95
2022-10-26T06:21:14.283Z,10.02
2022-10-26T06:24:03.237Z,10.07
2022-10-26T06:26:48.841Z,10.09
2022-10-26T06:29:25.774Z,10.08
2022-10-26T06:31:55.543Z,10.07
2022-10-26T06:34:33.599Z,10.12
2022-10-26T06:37:04.613Z,10.17
2022-10-26T06:39:43.676Z,10.20
2022-10-26T06:42:14.881Z,10.22
2022-10-26T06:44:45.882Z,10.28
2022-10-26T06:47:34.411Z,10.40
2022-10-26T06:50:57.554Z,10.50
2022-10-26T06:56:13.856Z,10.53
2022-10-26T06:58:46.054Z,10.58
2022-10-26T07:01:22.650Z,10.62
2022-10-26T07:03:59.773Z,10.69
2022-10-26T07:06:31.734Z,10.73
2022-10-26T07:09:06.053Z,10.75
2022-10-26T07:11:38.893Z,10.72
2022-10-26T07:14:09.276Z,10.72
2022-10-26T07:16:42.073Z,10.71
2022-10-26T07:19:11.254Z,10.70
2022-10-26T07:21:40.163Z,10.73
2022-10-26T07:24:10.701Z,10.77
2022-10-26T07:26:44.514Z,10.77
2022-10-26T07:29:14.993Z,10.70
2022-10-26T07:31:46.134Z,10.67
2022-10-26T07:34:17.203Z,10.71
2022-10-26T07:36:59.633Z,10.70
2022-10-26T07:39:47.397Z,10.71
2022-10-26T07:42:26.352Z,10.76
2022-10-26T07:44:57.864Z,10.80
2022-10-26T07:47:37.184Z,10.91
2022-10-26T07:50:13.819Z,11.12
2022-10-26T07:52:55.132Z,11.18
2022-10-26T07:55:27.241Z,11.18
2022-10-26T07:58:02.528Z,11.20
2022-10-26T08:00:36.932Z,11.25
2022-10-26T08:03:12.282Z,11.42
2022-10-26T08:05:56.481Z,11.46
2022-10-26T08:08:30.662Z,11.52
2022-10-26T08:11:03.428Z,11.63
2022-10-26T08:13:36.123Z,11.71
2022-10-26T08:16:08.789Z,11.76
2022-10-26T08:18:38.888Z,11.71
2022-10-26T08:21:21.841Z,11.65
2022-10-26T08:23:59.967Z,11.60
2022-10-26T08:26:31.114Z,11.58
2022-10-26T08:29:01.756Z,11.54
2022-10-26T08:31:32.976Z,11.53
2022-10-26T08:34:04.840Z,11.54
2022-10-26T08:36:35.939Z,11.51
2022-10-26T08:39:05.850Z,11.50
2022-10-26T08:41:42.912Z,11.53
2022-10-26T08:44:47.763Z,11.65
2022-10-26T08:47:29.195Z,11.72
2022-10-26T08:50:53.693Z,11.73
2022-10-26T08:54:01.993Z,11.58
2022-10-26T08:56:57.100Z,11.53
2022-10-26T08:59:38.001Z,11.59
2022-10-26T09:02:17.777Z,11.75
2022-10-26T09:04:47.543Z,11.88
2022-10-26T09:07:47.320Z,11.95
2022-10-26T09:10:39.036Z,12.10
2022-10-26T09:13:45.560Z,12.13
2022-10-26T09:16:44.527Z,12.04
2022-10-26T09:19:22.299Z,12.07
2022-10-26T09:22:16.215Z,12.11
2022-10-26T09:24:56.004Z,12.06
2022-10-26T09:27:24.918Z,12.16
2022-10-26T09:29:57.261Z,12.23
2022-10-26T09:32:39.645Z,12.30
2022-10-26T09:35:23.010Z,12.37
2022-10-26T09:38:03.597Z,12.31
2022-10-26T09:40:56.691Z,12.28
2022-10-26T09:43:33.814Z,12.23
2022-10-26T09:46:02.657Z,12.18
2022-10-26T09:48:41.740Z,12.05
2022-10-26T09:51:11.751Z,11.99
2022-10-26T09:53:40.808Z,11.93
2022-10-26T09:56:12.583Z,11.87
2022-10-26T09:58:47.792Z,11.82
2022-10-26T10:01:38.258Z,11.81
2022-10-26T10:04:18.871Z,11.86
2022-10-26T10:06:50.169Z,11.87
2022-10-26T10:09:22.029Z,11.83
2022-10-26T10:12:06.591Z,11.71
2022-10-26T10:14:45.968Z,11.60
2022-10-26T10:17:33.585Z,11.60
2022-10-26T10:20:22.884Z,11.66
2022-10-26T10:23:06.179Z,11.64
2022-10-26T10:25:42.447Z,11.58
2022-10-26T10:28:25.170Z,11.60
2022-10-26T10:31:06.858Z,11.58
2022-10-26T10:33:41.281Z,11.64
2022-10-26T10:36:20.323Z,11.68
2022-10-26T10:38:51.615Z,11.73
2022-10-26T10:41:31.108Z,11.76
2022-10-26T10:44:28.617Z,11.84
2022-10-26T10:47:03.854Z,11.99
2022-10-26T10:49:34.517Z,12.07
2022-10-26T10:52:03.565Z,12.08
2022-10-26T10:54:41.141Z,12.05
2022-10-26T10:57:47.006Z,11.98
2022-10-26T11:00:26.448Z,11.87
2022-10-26T11:03:47.264Z,11.85
2022-10-26T11:10:50.527Z,11.87
2022-10-26T11:13:35.119Z,11.76
2022-10-26T11:16:14.465Z,11.69
2022-10-26T11:18:50.935Z,11.69
2022-10-26T11:21:27.081Z,11.69
2022-10-26T11:24:14.236Z,11.71
2022-10-26T11:26:55.973Z,11.79
2022-10-26T11:29:30.347Z,11.78
2022-10-26T11:32:38.656Z,11.72
2022-10-26T11:35:37.128Z,11.61
2022-10-26T11:38:38.856Z,11.56
2022-10-26T11:41:36.629Z,11.50
2022-10-26T11:44:23.854Z,11.49
2022-10-26T11:47:19.160Z,11.53
2022-10-26T11:49:47.916Z,11.53
2022-10-26T11:52:35.215Z,11.58
2022-10-26T11:55:05.263Z,11.65
2022-10-26T11:57:38.414Z,11.63
2022-10-26T12:00:17.681Z,11.64
2022-10-26T12:02:56.238Z,11.65
2022-10-26T12:05:34.329Z,11.72
2022-10-26T12:08:16.883Z,11.77
2022-10-26T12:10:53.034Z,11.81
2022-10-26T12:13:35.769Z,11.78
2022-10-26T12:16:30.640Z,11.79
2022-10-26T12:19:05.664Z,11.76
2022-10-26T12:21:38.415Z,11.75
2022-10-26T12:24:47.487Z,11.80
2022-10-26T12:27:54.788Z,11.84
2022-10-26T12:30:33.839Z,11.90
2022-10-26T12:33:30.140Z,11.96
2022-10-26T12:36:02.599Z,11.92
2022-10-26T12:38:33.806Z,11.93
2022-10-26T12:41:28.427Z,11.92
2022-10-26T12:43:59.190Z,11.84
2022-10-26T12:46:39.485Z,11.87
2022-10-26T12:49:47.945Z,11.87
2022-10-26T12:52:28.887Z,11.86
2022-10-26T12:55:12.828Z,11.84
2022-10-26T12:58:07.411Z,11.88
2022-10-26T13:00:46.496Z,11.91
2022-10-26T13:03:34.557Z,11.93
2022-10-26T13:06:34.103Z,11.94
2022-10-26T13:09:14.102Z,12.01
2022-10-26T13:11:53.145Z,12.07
2022-10-26T13:14:37.941Z,12.11
2022-10-26T13:17:07.540Z,12.14
2022-10-26T13:19:48.123Z,12.19
2022-10-26T13:22:23.334Z,12.21
2022-10-26T13:25:06.409Z,12.24
2022-10-26T13:27:35.308Z,12.26
2022-10-26T13:30:03.928Z,12.27
2022-10-26T13:32:36.965Z,12.25
2022-10-26T13:35:12.338Z,12.27
2022-10-26T13:37:47.382Z,12.28
2022-10-26T13:40:22.707Z,12.27
2022-10-26T13:42:57.492Z,12.26
2022-10-26T13:45:30.359Z,12.19
2022-10-26T13:48:25.306Z,12.19
2022-10-26T13:51:02.170Z,12.22
2022-10-26T13:53:56.120Z,12.23
2022-10-26T13:56:49.724Z,12.21
2022-10-26T14:02:14.501Z,12.27
2022-10-26T14:04:48.965Z,12.28
2022-10-26T14:07:29.813Z,12.29
2022-10-26T14:10:00.499Z,12.28
2022-10-26T14:12:30.114Z,12.28
2022-10-26T14:15:09.014Z,12.29
2022-10-26T14:17:38.625Z,12.29
2022-10-26T14:20:20.754Z,12.31
2022-10-26T14:22:52.623Z,12.29
2022-10-26T14:25:36.250Z,12.26
2022-10-26T14:28:24.413Z,12.25
2022-10-26T14:31:12.988Z,12.22
2022-10-26T14:33:44.289Z,12.19
2022-10-26T14:36:15.868Z,12.15
2022-10-26T14:38:50.345Z,12.12
2022-10-26T14:41:20.987Z,12.11
2022-10-26T14:43:52.137Z,12.09
2022-10-26T14:46:25.845Z,12.08
2022-10-26T14:49:01.790Z,12.06
2022-10-26T14:51:37.497Z,11.99
2022-10-26T14:54:19.614Z,11.97
2022-10-26T14:56:51.887Z,11.95
2022-10-26T14:59:28.209Z,11.91
2022-10-26T15:02:22.855Z,11.90
2022-10-26T15:05:42.707Z,11.87
2022-10-26T15:08:55.832Z,11.82
2022-10-26T15:11:28.166Z,11.78
2022-10-26T15:14:01.298Z,11.76
2022-10-26T15:16:41.263Z,11.77
2022-10-26T15:19:13.150Z,11.78
2022-10-26T15:21:51.192Z,11.81
2022-10-26T15:24:37.421Z,11.83
2022-10-26T15:27:18.937Z,11.86
2022-10-26T15:29:53.030Z,11.88
2022-10-26T15:32:33.281Z,11.91
2022-10-26T15:35:12.630Z,11.95
2022-10-26T15:37:42.761Z,11.96
2022-10-26T15:40:15.149Z,11.94
2022-10-26T15:42:46.823Z,11.96
2022-10-26T15:45:26.967Z,11.92
2022-10-26T15:47:58.814Z,11.89
2022-10-26T15:50:32.107Z,11.88
2022-10-26T15:53:04.024Z,11.89
2022-10-26T15:55:34.170Z,11.90
2022-10-26T15:58:04.682Z,11.88
2022-10-26T16:00:34.920Z,11.84
2022-10-26T16:03:14.654Z,11.79
2022-10-26T16:05:45.174Z,11.80
2022-10-26T16:08:18.518Z,11.81
2022-10-26T16:10:49.265Z,11.80
2022-10-26T16:13:18.334Z,11.80
2022-10-26T16:15:48.072Z,11.78
2022-10-26T16:18:18.246Z,11.75
2022-10-26T16:20:52.621Z,11.76
2022-10-26T16:23:22.958Z,11.74
2022-10-26T16:25:53.936Z,11.73
2022-10-26T16:28:23.655Z,11.70
2022-10-26T16:31:00.695Z,11.71
2022-10-26T16:33:30.252Z,11.70
2022-10-26T16:36:00.400Z,11.74
2022-10-26T16:38:33.423Z,11.76
2022-10-26T16:41:05.165Z,11.75
2022-10-26T16:43:37.416Z,11.69
2022-10-26T16:46:18.588Z,11.65
2022-10-26T16:48:50.978Z,11.63
2022-10-26T16:51:28.077Z,11.61
2022-10-26T16:53:59.897Z,11.58
2022-10-26T16:56:31.034Z,11.56
2022-10-26T16:59:02.374Z,11.54
2022-10-26T17:01:32.863Z,11.54
2022-10-26T17:06:33.559Z,11.58
2022-10-26T17:09:02.874Z,11.58
2022-10-26T17:11:32.328Z,11.58
2022-10-26T17:14:01.496Z,11.57
2022-10-26T17:16:32.838Z,11.55
2022-10-26T17:19:03.548Z,11.51
2022-10-26T17:21:35.649Z,11.48
2022-10-26T17:24:07.598Z,11.45
2022-10-26T17:26:39.397Z,11.41
2022-10-26T17:29:16.242Z,11.37
2022-10-26T17:31:50.584Z,11.34
2022-10-26T17:34:24.720Z,11.31
2022-10-26T17:36:55.046Z,11.29
2022-10-26T17:39:25.698Z,11.25
2022-10-26T17:41:57.718Z,11.23
2022-10-26T17:44:27.814Z,11.20
2022-10-26T17:46:59.898Z,11.16
2022-10-26T17:49:35.800Z,11.16
2022-10-26T17:52:08.875Z,11.16
2022-10-26T17:54:41.329Z,11.18
2022-10-26T17:57:14.805Z,11.19
2022-10-26T17:59:49.468Z,11.20
2022-10-26T18:02:29.265Z,11.19
2022-10-26T18:05:03.834Z,11.17
2022-10-26T18:07:43.084Z,11.15
2022-10-26T18:10:37.670Z,11.11
2022-10-26T18:13:21.074Z,11.04
2022-10-26T18:15:59.787Z,10.98
2022-10-26T18:18:34.076Z,10.95
2022-10-26T18:21:16.135Z,10.91
2022-10-26T18:23:48.475Z,10.88
2022-10-26T18:26:20.623Z,10.81
2022-10-26T18:28:50.615Z,10.73
2022-10-26T18:31:28.102Z,10.67
2022-10-26T18:34:00.587Z,10.64
2022-10-26T18:36:33.323Z,10.62
2022-10-26T18:39:04.844Z,10.60
2022-10-26T18:41:42.427Z,10.53
2022-10-26T18:44:15.660Z,10.49
2022-10-26T18:46:52.886Z,10.42
2022-10-26T18:49:24.696Z,10.29
2022-10-26T18:52:04.685Z,10.18
2022-10-26T18:54:41.975Z,10.08
2022-10-26T18:57:12.959Z,9.99
2022-10-26T18:59:44.663Z,9.92
2022-10-26T19:02:18.708Z,9.86
2022-10-26T19:04:54.639Z,9.81
2022-10-26T19:07:30.325Z,9.76
2022-10-26T19:10:03.610Z,9.72
2022-10-26T19:12:34.017Z,9.70
2022-10-26T19:15:06.928Z,9.59
2022-10-26T19:17:37.816Z,9.47
2022-10-26T19:20:11.273Z,9.45
2022-10-26T19:22:41.971Z,9.47
2022-10-26T19:25:14.675Z,9.48
2022-10-26T19:27:47.368Z,9.46
2022-10-26T19:30:18.708Z,9.43
2022-10-26T19:32:54.684Z,9.41
2022-10-26T19:35:24.896Z,9.42
2022-10-26T19:37:56.435Z,9.38
2022-10-26T19:40:27.635Z,9.36
2022-10-26T19:43:03.783Z,9.34
2022-10-26T19:45:35.145Z,9.32
2022-10-26T19:48:06.855Z,9.29
2022-10-26T19:50:43.756Z,9.24
2022-10-26T19:53:17.943Z,9.20
2022-10-26T19:55:48.845Z,9.18
2022-10-26T19:58:22.026Z,9.19
2022-10-26T20:00:59.715Z,9.18
2022-10-26T20:03:56.965Z,9.17
2022-10-26T20:06:29.435Z,9.18
2022-10-26T20:08:59.727Z,9.19
2022-10-26T20:11:33.005Z,9.19
2022-10-26T20:14:06.668Z,9.20
2022-10-26T20:16:38.894Z,9.22
2022-10-26T20:19:09.354Z,9.19
2022-10-26T20:21:41.147Z,9.07
2022-10-26T20:24:11.570Z,8.99
2022-10-26T20:26:44.604Z,8.89
2022-10-26T20:29:16.087Z,8.80
2022-10-26T20:31:49.830Z,8.77
2022-10-26T20:34:25.663Z,8.77
2022-10-26T20:36:56.901Z,8.77
2022-10-26T20:39:27.749Z,8.78
2022-10-26T20:42:00.025Z,8.75
2022-10-26T20:44:36.078Z,8.77
2022-10-26T20:47:06.475Z,8.77
2022-10-26T20:49:38.536Z,8.78
2022-10-26T20:52:21.072Z,8.77
2022-10-26T20:55:28.823Z,8.63
2022-10-26T20:58:09.349Z,8.53
2022-10-26T21:00:45.800Z,8.55
2022-10-26T21:07:42.797Z,8.55
2022-10-26T21:10:13.768Z,8.55
2022-10-26T21:12:46.060Z,8.51
2022-10-26T21:15:15.955Z,8.46
2022-10-26T21:17:45.387Z,8.43
2022-10-26T21:20:15.434Z,8.45
2022-10-26T21:22:44.516Z,8.51
2022-10-26T21:25:14.884Z,8.58
2022-10-26T21:27:43.827Z,8.62
2022-10-26T21:30:13.887Z,8.68
2022-10-26T21:32:48.693Z,8.73
2022-10-26T21:35:18.836Z,8.79
2022-10-26T21:37:49.549Z,8.85
2022-10-26T21:40:19.088Z,8.90
2022-10-26T21:42:52.742Z,8.89
2022-10-26T21:45:23.106Z,8.94
2022-10-26T21:47:53.055Z,9.01
2022-10-26T21:50:24.338Z,9.02
2022-10-26T21:52:55.028Z,9.01
2022-10-26T21:55:25.445Z,9.03
2022-10-26T21:57:54.868Z,9.07
2022-10-26T22:00:24.060Z,9.11
2022-10-26T22:04:07.604Z,9.15
2022-10-26T22:06:36.650Z,9.02
2022-10-26T22:09:09.168Z,8.94
2022-10-26T22:11:38.692Z,8.94
2022-10-26T22:14:08.863Z,8.94
2022-10-26T22:16:38.238Z,8.96
2022-10-26T22:19:08.528Z,8.95
2022-10-26T22:21:41.530Z,8.92
2022-10-26T22:24:12.829Z,8.92
2022-10-26T22:26:44.917Z,8.92
2022-10-26T22:29:13.898Z,8.95
2022-10-26T22:31:45.139Z,8.97
2022-10-26T22:34:16.993Z,8.97
2022-10-26T22:36:46.096Z,8.93
2022-10-26T22:39:15.998Z,8.82
2022-10-26T22:41:48.581Z,8.72
2022-10-26T22:44:21.458Z,8.67
2022-10-26T22:46:52.467Z,8.62
2022-10-26T22:49:21.318Z,8.60
2022-10-26T22:51:50.229Z,8.61
2022-10-26T22:54:20.288Z,8.63
2022-10-26T22:56:50.210Z,8.67
2022-10-26T22:59:21.728Z,8.68
2022-10-26T23:01:52.592Z,8.66
2022-10-26T23:04:23.028Z,8.66
2022-10-26T23:06:52.742Z,8.69
2022-10-26T23:09:22.740Z,8.72
2022-10-26T23:11:53.489Z,8.76
2022-10-26T23:14:24.618Z,8.79
2022-10-26T23:16:54.351Z,8.83
2022-10-26T23:19:24.128Z,8.89
2022-10-26T23:21:53.218Z,8.94
2022-10-26T23:24:22.508Z,8.98
2022-10-26T23:26:52.178Z,9.03
2022-10-26T23:29:21.797Z,9.04
2022-10-26T23:31:54.326Z,8.99
2022-10-26T23:34:25.806Z,8.96
2022-10-26T23:36:56.047Z,8.93
2022-10-26T23:39:27.355Z,8.89
2022-10-26T23:41:57.406Z,8.86
2022-10-26T23:44:27.071Z,8.83
2022-10-26T23:46:57.251Z,8.82
2022-10-26T23:49:28.324Z,8.82
2022-10-26T23:51:58.688Z,8.83
2022-10-26T23:54:28.898Z,8.84
2022-10-26T23:57:00.978Z,8.84
2022-10-26T23:59:30.208Z,8.85
